createdAt,value
2022-08-09T00:02:03.441Z,11.40
2022-08-09T00:04:35.547Z,11.30
2022-08-09T00:07:10.446Z,11.30
2022-08-09T00:09:42.296Z,11.30
2022-08-09T00:12:22.764Z,11.40
2022-08-09T00:14:56.667Z,11.30
2022-08-09T00:18:05.623Z,11.20
2022-08-09T00:20:15.806Z,11.10
2022-08-09T00:22:47.136Z,11.10
2022-08-09T00:25:23.507Z,11.00
2022-08-09T00:28:07.756Z,11.10
2022-08-09T00:30:40.631Z,11.20
2022-08-09T00:33:11.319Z,11.10
2022-08-09T00:35:43.723Z,11.00
2022-08-09T00:38:13.989Z,10.90
2022-08-09T00:40:52.809Z,10.90
2022-08-09T00:44:11.381Z,10.80
2022-08-09T00:46:44.107Z,10.70
2022-08-09T00:49:09.027Z,10.60
2022-08-09T00:51:42.830Z,10.70
2022-08-09T00:54:31.395Z,10.70
2022-08-09T00:57:10.787Z,10.60
2022-08-09T00:59:46.504Z,10.60
2022-08-09T01:02:22.157Z,10.60
2022-08-09T01:05:03.292Z,10.70
2022-08-09T01:07:59.993Z,10.80
2022-08-09T01:10:51.157Z,10.70
2022-08-09T01:13:53.471Z,10.50
2022-08-09T01:16:33.602Z,10.40
2022-08-09T01:19:40.293Z,10.30
2022-08-09T01:23:05.089Z,10.40
2022-08-09T01:26:26.745Z,10.40
2022-08-09T01:29:01.453Z,10.40
2022-08-09T01:32:30.681Z,10.50
2022-08-09T01:34:29.037Z,10.60
2022-08-09T01:37:06.886Z,10.70
2022-08-09T01:39:40.959Z,10.60
2022-08-09T01:42:12.625Z,10.50
2022-08-09T01:44:46.076Z,10.30
2022-08-09T01:47:18.910Z,10.20
2022-08-09T01:49:57.548Z,10.20
2022-08-09T01:52:29.944Z,10.20
2022-08-09T01:55:04.443Z,10.10
2022-08-09T01:57:45.852Z,10.10
2022-08-09T02:00:35.916Z,10.00
2022-08-09T02:03:13.542Z,10.00
2022-08-09T02:06:03.135Z,9.90
2022-08-09T02:08:59.061Z,9.80
2022-08-09T02:11:42.042Z,9.80
2022-08-09T02:14:26.348Z,9.70
2022-08-09T02:17:55.050Z,9.70
2022-08-09T02:19:50.237Z,9.80
2022-08-09T02:22:41.488Z,10.00
2022-08-09T02:25:22.224Z,10.20
2022-08-09T02:28:04.137Z,10.30
2022-08-09T02:30:42.694Z,10.10
2022-08-09T02:33:23.251Z,10.00
2022-08-09T02:36:14.437Z,9.90
2022-08-09T02:38:52.459Z,10.10
2022-08-09T02:41:31.942Z,10.10
2022-08-09T02:44:25.546Z,10.00
2022-08-09T02:47:04.232Z,9.90
2022-08-09T02:49:41.351Z,9.80
2022-08-09T02:52:18.462Z,9.80
2022-08-09T02:54:55.056Z,9.90
2022-08-09T02:57:29.398Z,10.10
2022-08-09T03:00:25.436Z,10.00
2022-08-09T03:03:00.340Z,9.90
2022-08-09T03:05:35.018Z,9.80
2022-08-09T03:08:09.862Z,9.70
2022-08-09T03:10:41.314Z,9.70
2022-08-09T03:13:19.176Z,9.70
2022-08-09T03:16:05.718Z,9.70
2022-08-09T03:18:38.398Z,9.70
2022-08-09T03:21:12.793Z,9.90
2022-08-09T03:23:44.461Z,10.10
2022-08-09T03:26:45.080Z,10.20
2022-08-09T03:29:23.552Z,10.20
2022-08-09T03:31:59.645Z,10.20
2022-08-09T03:34:30.576Z,10.20
2022-08-09T03:37:10.722Z,10.20
2022-08-09T03:39:55.550Z,10.00
2022-08-09T03:42:28.880Z,9.90
2022-08-09T03:44:57.624Z,9.80
2022-08-09T03:47:26.955Z,9.80
2022-08-09T03:49:59.347Z,9.80
2022-08-09T03:52:32.799Z,9.80
2022-08-09T03:55:09.783Z,9.70
2022-08-09T03:57:53.578Z,9.80
2022-08-09T04:00:30.722Z,9.90
2022-08-09T04:03:02.791Z,10.00
2022-08-09T04:05:40.558Z,10.00
2022-08-09T04:08:13.307Z,9.90
2022-08-09T04:10:43.215Z,10.00
2022-08-09T04:13:23.627Z,10.00
2022-08-09T04:16:19.313Z,10.00
2022-08-09T04:18:51.098Z,10.10
2022-08-09T04:21:20.882Z,10.10
2022-08-09T04:23:54.148Z,10.10
2022-08-09T04:26:38.177Z,10.20
2022-08-09T04:29:14.819Z,10.20
2022-08-09T04:31:47.637Z,10.30
2022-08-09T04:34:19.171Z,10.30
2022-08-09T04:37:00.635Z,10.40
2022-08-09T04:39:31.482Z,10.50
2022-08-09T04:42:02.804Z,10.60
2022-08-09T04:44:32.064Z,10.60
2022-08-09T04:47:04.306Z,10.70
2022-08-09T04:49:53.118Z,10.70
2022-08-09T04:52:27.442Z,10.80
2022-08-09T04:55:01.574Z,11.00
2022-08-09T04:57:54.357Z,11.10
2022-08-09T05:00:21.078Z,11.10
2022-08-09T05:02:52.601Z,11.20
2022-08-09T05:05:32.063Z,11.40
2022-08-09T05:08:13.959Z,11.60
2022-08-09T05:10:46.741Z,11.80
2022-08-09T05:13:16.543Z,12.10
2022-08-09T05:15:52.283Z,12.20
2022-08-09T05:18:39.659Z,12.40
2022-08-09T05:21:22.761Z,12.50
2022-08-09T05:24:00.334Z,12.70
2022-08-09T05:26:41.105Z,12.90
2022-08-09T05:29:21.749Z,13.50
2022-08-09T05:31:57.435Z,14.40
2022-08-09T05:34:31.067Z,15.00
2022-08-09T05:37:06.170Z,15.20
2022-08-09T05:39:43.188Z,15.20
2022-08-09T05:42:28.197Z,15.90
2022-08-09T05:45:06.018Z,17.40
2022-08-09T05:47:51.743Z,18.30
2022-08-09T05:50:50.502Z,19.90
2022-08-09T05:53:33.219Z,21.00
2022-08-09T05:56:12.443Z,22.10
2022-08-09T05:58:47.846Z,23.20
2022-08-09T06:01:19.714Z,24.30
2022-08-09T06:03:58.114Z,25.00
2022-08-09T06:06:29.650Z,25.80
2022-08-09T06:09:02.060Z,26.40
2022-08-09T06:11:41.177Z,27.00
2022-08-09T06:14:31.580Z,26.80
2022-08-09T06:17:04.994Z,27.20
2022-08-09T06:19:42.505Z,27.50
2022-08-09T06:22:15.195Z,28.30
2022-08-09T06:24:48.018Z,28.60
2022-08-09T06:27:41.354Z,29.20
2022-08-09T06:30:19.414Z,29.50
2022-08-09T06:33:00.466Z,29.60
2022-08-09T06:35:57.701Z,30.00
2022-08-09T06:38:32.256Z,30.80
2022-08-09T06:41:18.940Z,31.90
2022-08-09T06:43:50.480Z,32.20
2022-08-09T06:46:39.690Z,31.70
2022-08-09T06:49:11.125Z,31.00
2022-08-09T06:51:52.354Z,30.30
2022-08-09T06:54:26.308Z,30.70
2022-08-09T06:56:56.255Z,31.90
2022-08-09T07:00:54.267Z,31.20
2022-08-09T07:02:29.412Z,31.50
2022-08-09T07:05:07.614Z,32.00
2022-08-09T07:07:59.878Z,32.40
2022-08-09T07:10:31.449Z,30.30
2022-08-09T07:13:05.413Z,31.30
2022-08-09T07:16:35.205Z,32.30
2022-08-09T07:18:44.766Z,32.90
2022-08-09T07:21:20.791Z,32.90
2022-08-09T07:23:57.735Z,32.80
2022-08-09T07:26:33.565Z,32.30
2022-08-09T07:29:08.558Z,31.60
2022-08-09T07:31:45.443Z,31.00
2022-08-09T07:34:25.720Z,31.20
2022-08-09T07:36:56.308Z,32.50
2022-08-09T07:39:40.842Z,32.10
2022-08-09T07:42:11.877Z,31.70
2022-08-09T07:44:55.381Z,32.00
2022-08-09T07:47:49.575Z,32.20
2022-08-09T07:50:34.852Z,32.60
2022-08-09T07:53:10.680Z,33.10
2022-08-09T07:56:03.378Z,33.40
2022-08-09T07:58:39.473Z,33.10
2022-08-09T08:01:11.364Z,32.60
2022-08-09T08:03:42.544Z,32.50
2022-08-09T08:06:15.686Z,32.10
2022-08-09T08:09:03.830Z,31.70
2022-08-09T08:12:11.533Z,32.40
2022-08-09T08:14:33.309Z,32.30
2022-08-09T08:17:11.994Z,31.80
2022-08-09T08:19:45.250Z,32.20
2022-08-09T08:22:24.233Z,32.60
2022-08-09T08:24:58.103Z,32.30
2022-08-09T08:27:40.441Z,33.30
2022-08-09T08:30:18.201Z,33.10
2022-08-09T08:32:52.455Z,31.30
2022-08-09T08:35:23.322Z,29.40
2022-08-09T08:38:04.670Z,29.20
2022-08-09T08:40:43.078Z,29.50
2022-08-09T08:43:23.109Z,31.10
2022-08-09T08:46:10.058Z,32.00
2022-08-09T08:48:54.147Z,33.00
2022-08-09T08:51:38.874Z,34.00
2022-08-09T08:54:20.462Z,32.90
2022-08-09T08:57:00.140Z,31.60
2022-08-09T08:59:46.791Z,31.10
2022-08-09T09:02:31.368Z,30.90
2022-08-09T09:05:09.943Z,30.70
2022-08-09T09:07:51.806Z,29.90
2022-08-09T09:10:27.493Z,30.20
2022-08-09T09:13:09.317Z,30.50
2022-08-09T09:16:10.902Z,30.80
2022-08-09T09:18:43.352Z,31.60
2022-08-09T09:21:18.189Z,32.10
2022-08-09T09:24:05.324Z,32.10
2022-08-09T09:27:00.803Z,32.20
2022-08-09T09:30:11.507Z,31.00
2022-08-09T09:32:39.446Z,30.90
2022-08-09T09:35:15.832Z,30.90
2022-08-09T09:37:48.678Z,31.40
2022-08-09T09:40:22.098Z,31.60
2022-08-09T09:42:59.858Z,31.80
2022-08-09T09:46:39.007Z,31.70
2022-08-09T09:48:43.840Z,31.80
2022-08-09T09:51:26.038Z,32.20
2022-08-09T09:54:20.259Z,32.40
2022-08-09T09:58:03.081Z,32.10
2022-08-09T09:59:54.480Z,31.80
2022-08-09T10:02:27.107Z,32.00
2022-08-09T10:05:07.915Z,32.20
2022-08-09T10:08:11.306Z,32.20
2022-08-09T10:10:40.913Z,31.60
2022-08-09T10:13:12.188Z,31.20
2022-08-09T10:16:54.512Z,31.40
2022-08-09T10:19:02.179Z,31.60
2022-08-09T10:21:39.022Z,31.60
2022-08-09T10:24:15.841Z,31.40
2022-08-09T10:26:49.477Z,31.30
2022-08-09T10:30:08.401Z,31.50
2022-08-09T10:32:38.579Z,31.60
2022-08-09T10:35:14.235Z,30.90
2022-08-09T10:37:48.316Z,30.50
2022-08-09T10:40:33.768Z,30.20
2022-08-09T10:43:13.036Z,30.10
2022-08-09T10:45:51.775Z,30.10
2022-08-09T10:48:44.249Z,30.30
2022-08-09T10:51:48.898Z,30.40
2022-08-09T10:54:29.601Z,30.20
2022-08-09T10:57:14.088Z,30.60
2022-08-09T10:59:57.673Z,30.40
2022-08-09T11:03:15.241Z,30.20
2022-08-09T11:05:38.386Z,30.20
2022-08-09T11:08:51.263Z,29.80
2022-08-09T11:11:25.531Z,29.60
2022-08-09T11:14:34.635Z,29.30
2022-08-09T11:17:09.028Z,29.20
2022-08-09T11:20:10.199Z,28.90
2022-08-09T11:23:07.230Z,29.00
2022-08-09T11:25:54.685Z,28.80
2022-08-09T11:28:55.785Z,29.00
2022-08-09T11:31:53.050Z,28.80
2022-08-09T11:34:48.395Z,28.80
2022-08-09T11:37:40.930Z,28.50
2022-08-09T11:40:29.204Z,28.30
2022-08-09T11:43:01.390Z,28.20
2022-08-09T11:45:43.090Z,28.40
2022-08-09T11:48:26.606Z,28.40
2022-08-09T11:53:03.627Z,28.50
2022-08-09T11:54:27.555Z,28.80
2022-08-09T11:57:47.973Z,29.10
2022-08-09T12:00:32.640Z,29.00
2022-08-09T12:03:40.972Z,28.60
2022-08-09T12:05:57.711Z,28.80
2022-08-09T12:08:30.513Z,28.90
2022-08-09T12:11:04.796Z,29.10
2022-08-09T12:14:10.483Z,29.30
2022-08-09T12:16:43.013Z,29.00
2022-08-09T12:19:14.947Z,29.00
2022-08-09T12:21:51.541Z,28.60
2022-08-09T12:24:28.083Z,28.60
2022-08-09T12:29:10.357Z,28.50
2022-08-09T12:30:00.145Z,28.70
2022-08-09T12:32:34.851Z,29.30
2022-08-09T12:35:16.973Z,29.70
2022-08-09T12:37:51.637Z,29.60
2022-08-09T12:40:27.152Z,29.20
2022-08-09T12:42:57.726Z,29.00
2022-08-09T12:45:34.408Z,29.20
2022-08-09T12:48:20.257Z,29.70
2022-08-09T12:51:03.995Z,30.20
2022-08-09T12:53:41.028Z,30.20
2022-08-09T12:56:39.519Z,30.30
2022-08-09T12:59:13.998Z,30.40
2022-08-09T13:02:02.917Z,30.80
2022-08-09T13:04:36.520Z,31.00
2022-08-09T13:07:19.906Z,30.40
2022-08-09T13:10:06.095Z,30.50
2022-08-09T13:12:40.069Z,30.20
2022-08-09T13:15:25.338Z,29.90
2022-08-09T13:18:17.582Z,29.80
2022-08-09T13:21:03.935Z,29.90
2022-08-09T13:24:06.563Z,29.80
2022-08-09T13:26:42.633Z,29.80
2022-08-09T13:29:16.457Z,29.10
2022-08-09T13:32:16.212Z,29.40
2022-08-09T13:34:52.003Z,30.40
2022-08-09T13:37:50.548Z,30.30
2022-08-09T13:41:51.142Z,30.50
2022-08-09T13:43:05.313Z,30.30
2022-08-09T13:46:42.676Z,30.00
2022-08-09T13:48:30.887Z,29.70
2022-08-09T13:51:04.577Z,30.00
2022-08-09T13:53:44.597Z,30.40
2022-08-09T13:56:14.108Z,30.60
2022-08-09T13:58:48.706Z,30.30
2022-08-09T14:01:56.722Z,30.30
2022-08-09T14:04:11.521Z,30.00
2022-08-09T14:07:07.067Z,30.10
2022-08-09T14:09:36.558Z,30.40
2022-08-09T14:12:15.583Z,30.70
2022-08-09T14:14:47.290Z,30.50
2022-08-09T14:17:23.015Z,30.30
2022-08-09T14:19:52.865Z,30.10
2022-08-09T14:22:25.369Z,29.60
2022-08-09T14:24:54.840Z,29.30
2022-08-09T14:27:24.053Z,29.20
2022-08-09T14:30:15.342Z,28.80
2022-08-09T14:32:48.491Z,28.80
2022-08-09T14:35:18.589Z,29.20
2022-08-09T14:38:02.711Z,29.40
2022-08-09T14:41:00.878Z,29.70
2022-08-09T14:43:24.914Z,30.30
2022-08-09T14:46:57.105Z,30.90
2022-08-09T14:49:10.529Z,31.50
2022-08-09T14:51:42.553Z,31.20
2022-08-09T14:54:16.879Z,31.10
2022-08-09T14:56:57.316Z,30.80
2022-08-09T14:59:28.554Z,31.00
2022-08-09T15:01:57.571Z,31.20
2022-08-09T15:04:30.612Z,31.10
2022-08-09T15:06:59.455Z,30.70
2022-08-09T15:10:04.578Z,31.00
2022-08-09T15:12:23.299Z,31.40
2022-08-09T15:14:52.015Z,31.00
2022-08-09T15:17:21.678Z,31.00
2022-08-09T15:19:59.082Z,31.30
2022-08-09T15:22:30.014Z,30.70
2022-08-09T15:25:04.055Z,30.60
2022-08-09T15:27:47.441Z,30.20
2022-08-09T15:30:58.381Z,30.60
2022-08-09T15:33:15.173Z,30.50
2022-08-09T15:35:57.290Z,31.20
2022-08-09T15:38:34.032Z,31.80
2022-08-09T15:41:09.552Z,32.10
2022-08-09T15:43:43.229Z,31.50
2022-08-09T15:46:18.829Z,31.10
2022-08-09T15:49:21.860Z,30.10
2022-08-09T15:52:04.554Z,30.30
2022-08-09T15:54:49.048Z,30.20
2022-08-09T15:57:35.029Z,30.50
2022-08-09T16:00:25.315Z,30.70
2022-08-09T16:02:57.238Z,30.00
2022-08-09T16:05:47.724Z,30.70
2022-08-09T16:08:29.969Z,30.90
2022-08-09T16:11:02.362Z,31.00
2022-08-09T16:14:04.642Z,30.00
2022-08-09T16:16:29.487Z,29.30
2022-08-09T16:18:59.029Z,29.40
2022-08-09T16:22:15.619Z,29.50
2022-08-09T16:24:45.447Z,29.70
2022-08-09T16:27:26.432Z,29.90
2022-08-09T16:30:02.625Z,30.50
2022-08-09T16:32:54.482Z,30.10
2022-08-09T16:35:55.666Z,29.30
2022-08-09T16:38:14.887Z,29.10
2022-08-09T16:40:48.228Z,28.90
2022-08-09T16:43:18.189Z,28.90
2022-08-09T16:45:53.782Z,29.00
2022-08-09T16:48:39.961Z,28.70
2022-08-09T16:51:16.993Z,28.50
2022-08-09T16:54:25.156Z,28.40
2022-08-09T16:56:49.006Z,28.70
2022-08-09T16:59:18.571Z,28.30
2022-08-09T17:01:52.982Z,28.30
2022-08-09T17:04:25.741Z,28.00
2022-08-09T17:08:41.493Z,27.70
2022-08-09T17:09:49.024Z,28.00
2022-08-09T17:12:19.801Z,28.50
2022-08-09T17:14:54.851Z,28.60
2022-08-09T17:17:27.918Z,28.20
2022-08-09T17:20:32.767Z,28.00
2022-08-09T17:22:49.829Z,28.10
2022-08-09T17:25:22.016Z,28.00
2022-08-09T17:27:54.051Z,27.60
2022-08-09T17:30:25.774Z,27.60
2022-08-09T17:33:01.387Z,28.00
2022-08-09T17:35:41.000Z,27.90
2022-08-09T17:38:31.026Z,27.50
2022-08-09T17:41:04.144Z,26.90
2022-08-09T17:43:37.381Z,26.60
2022-08-09T17:46:09.071Z,26.20
2022-08-09T17:48:51.545Z,25.90
2022-08-09T17:51:23.311Z,26.10
2022-08-09T17:53:55.770Z,26.60
2022-08-09T17:56:35.747Z,26.30
2022-08-09T17:59:11.343Z,26.30
2022-08-09T18:02:06.108Z,26.10
2022-08-09T18:04:36.134Z,25.90
2022-08-09T18:07:07.692Z,25.90
2022-08-09T18:09:41.912Z,25.90
2022-08-09T18:12:17.147Z,25.70
2022-08-09T18:14:54.547Z,25.60
2022-08-09T18:18:02.089Z,25.50
2022-08-09T18:20:55.323Z,24.80
2022-08-09T18:24:08.683Z,24.20
2022-08-09T18:25:58.988Z,23.50
2022-08-09T18:30:40.109Z,22.70
2022-08-09T18:31:32.197Z,22.20
2022-08-09T18:34:09.182Z,21.70
2022-08-09T18:36:40.364Z,21.40
2022-08-09T18:39:16.181Z,21.00
2022-08-09T18:41:52.702Z,20.50
2022-08-09T18:44:25.564Z,20.10
2022-08-09T18:47:08.221Z,19.70
2022-08-09T18:49:46.746Z,19.30
2022-08-09T18:52:24.791Z,18.80
2022-08-09T18:55:00.569Z,18.50
2022-08-09T18:57:38.698Z,18.20
2022-08-09T19:00:19.924Z,17.90
2022-08-09T19:02:54.275Z,17.70
2022-08-09T19:06:02.149Z,17.50
2022-08-09T19:08:23.900Z,17.30
2022-08-09T19:10:57.533Z,17.10
2022-08-09T19:13:38.407Z,16.90
2022-08-09T19:16:20.971Z,16.80
2022-08-09T19:18:50.967Z,16.60
2022-08-09T19:21:47.726Z,16.50
2022-08-09T19:24:36.259Z,16.50
2022-08-09T19:27:11.173Z,16.40
2022-08-09T19:30:20.842Z,16.30
2022-08-09T19:32:34.827Z,16.10
2022-08-09T19:35:06.923Z,16.00
2022-08-09T19:37:54.438Z,15.80
2022-08-09T19:40:34.188Z,15.70
2022-08-09T19:43:16.268Z,15.50
2022-08-09T19:45:57.385Z,15.50
2022-08-09T19:49:00.624Z,15.40
2022-08-09T19:51:16.961Z,15.30
2022-08-09T19:53:47.900Z,15.20
2022-08-09T19:56:28.704Z,15.10
2022-08-09T19:59:39.311Z,15.10
2022-08-09T20:02:03.414Z,15.10
2022-08-09T20:04:40.776Z,15.00
2022-08-09T20:07:21.222Z,14.90
2022-08-09T20:09:51.117Z,14.80
2022-08-09T20:12:29.865Z,14.80
2022-08-09T20:15:10.337Z,14.70
2022-08-09T20:18:00.312Z,14.60
2022-08-09T20:20:32.740Z,14.60
2022-08-09T20:23:02.002Z,14.50
2022-08-09T20:25:30.857Z,14.50
2022-08-09T20:28:27.586Z,14.40
2022-08-09T20:31:04.889Z,14.40
2022-08-09T20:33:41.244Z,14.30
2022-08-09T20:36:15.113Z,14.30
2022-08-09T20:39:28.061Z,14.40
2022-08-09T20:41:39.090Z,14.40
2022-08-09T20:44:10.734Z,14.50
2022-08-09T20:46:42.815Z,14.40
2022-08-09T20:49:15.739Z,14.30
2022-08-09T20:51:50.516Z,14.20
2022-08-09T20:54:20.740Z,14.10
2022-08-09T20:56:53.890Z,14.00
2022-08-09T21:00:19.157Z,14.00
2022-08-09T21:02:17.488Z,14.10
2022-08-09T21:05:54.030Z,14.20
2022-08-09T21:07:40.362Z,14.10
2022-08-09T21:10:12.061Z,14.00
2022-08-09T21:15:34.627Z,13.80
2022-08-09T21:18:20.875Z,13.70
2022-08-09T21:20:56.047Z,13.60
2022-08-09T21:23:26.492Z,13.50
2022-08-09T21:26:15.463Z,13.40
2022-08-09T21:28:55.835Z,13.40
2022-08-09T21:31:49.469Z,13.40
2022-08-09T21:34:28.822Z,13.30
2022-08-09T21:36:58.848Z,13.40
2022-08-09T21:39:42.058Z,13.60
2022-08-09T21:42:12.833Z,13.70
2022-08-09T21:44:47.411Z,13.70
2022-08-09T21:47:19.301Z,13.60
2022-08-09T21:49:54.688Z,13.50
2022-08-09T21:52:26.734Z,13.40
2022-08-09T21:55:03.926Z,13.50
2022-08-09T21:57:38.413Z,13.50
2022-08-09T22:00:31.662Z,13.50
2022-08-09T22:03:19.370Z,13.50
2022-08-09T22:05:54.754Z,13.40
2022-08-09T22:08:27.278Z,13.30
2022-08-09T22:11:49.991Z,13.20
2022-08-09T22:13:48.261Z,13.10
2022-08-09T22:16:19.476Z,13.00
2022-08-09T22:18:54.190Z,13.10
2022-08-09T22:21:27.516Z,13.20
2022-08-09T22:24:17.161Z,13.20
2022-08-09T22:26:51.719Z,13.10
2022-08-09T22:29:28.894Z,12.90
2022-08-09T22:32:29.410Z,12.90
2022-08-09T22:35:06.257Z,12.90
2022-08-09T22:37:44.861Z,13.00
2022-08-09T22:40:19.925Z,12.90
2022-08-09T22:42:50.883Z,12.90
2022-08-09T22:48:18.624Z,12.80
2022-08-09T22:48:29.993Z,12.70
2022-08-09T22:51:01.467Z,12.60
2022-08-09T22:53:44.338Z,12.70
2022-08-09T22:56:32.860Z,12.60
2022-08-09T22:59:05.815Z,12.50
2022-08-09T23:01:53.103Z,12.50
2022-08-09T23:04:25.950Z,12.40
2022-08-09T23:07:16.367Z,12.30
2022-08-09T23:09:45.730Z,12.30
2022-08-09T23:12:16.613Z,12.30
2022-08-09T23:14:45.778Z,12.20
2022-08-09T23:17:17.841Z,12.20
2022-08-09T23:20:06.771Z,12.20
2022-08-09T23:22:39.377Z,12.20
2022-08-09T23:25:13.576Z,12.20
2022-08-09T23:28:14.710Z,12.20
2022-08-09T23:30:32.015Z,12.20
2022-08-09T23:33:08.280Z,12.20
2022-08-09T23:36:06.603Z,12.30
2022-08-09T23:38:29.757Z,12.30
2022-08-09T23:41:00.756Z,12.30
2022-08-09T23:43:31.013Z,12.20
2022-08-09T23:46:03.400Z,12.20
2022-08-09T23:48:36.769Z,12.10
2022-08-09T23:51:07.665Z,12.00
2022-08-09T23:53:39.033Z,12.00
2022-08-09T23:56:08.714Z,12.00
2022-08-09T23:58:37.914Z,12.00
